sensor_id;sensor_type;location;lat;lon;timestamp;temperature;humidity
64715;DHT22;51144;53.002;6.506;2022-11-21T00:00:33;1.60;99.90
64715;DHT22;51144;53.002;6.506;2022-11-21T00:03:00;1.60;99.90
64715;DHT22;51144;53.002;6.506;2022-11-21T00:05:27;1.50;99.90
64715;DHT22;51144;53.002;6.506;2022-11-21T00:07:54;1.50;99.90
64715;DHT22;51144;53.002;6.506;2022-11-21T00:10:20;1.60;99.90
64715;DHT22;51144;53.002;6.506;2022-11-21T00:12:45;1.60;99.90
64715;DHT22;51144;53.002;6.506;2022-11-21T00:15:11;1.60;99.90
64715;DHT22;51144;53.002;6.506;2022-11-21T00:17:37;1.60;99.90
64715;DHT22;51144;53.002;6.506;2022-11-21T00:20:02;1.50;99.90
64715;DHT22;51144;53.002;6.506;2022-11-21T00:22:30;1.60;99.90
64715;DHT22;51144;53.002;6.506;2022-11-21T00:24:56;1.50;99.90
64715;DHT22;51144;53.002;6.506;2022-11-21T00:27:21;1.50;99.90
64715;DHT22;51144;53.002;6.506;2022-11-21T00:29:47;1.60;99.90
64715;DHT22;51144;53.002;6.506;2022-11-21T00:32:12;1.50;99.90
64715;DHT22;51144;53.002;6.506;2022-11-21T00:34:38;1.50;99.90
64715;DHT22;51144;53.002;6.506;2022-11-21T00:37:03;1.50;99.90
64715;DHT22;51144;53.002;6.506;2022-11-21T00:39:29;1.50;99.90
64715;DHT22;51144;53.002;6.506;2022-11-21T00:41:55;1.50;99.90
64715;DHT22;51144;53.002;6.506;2022-11-21T00:44:20;1.50;99.90
64715;DHT22;51144;53.002;6.506;2022-11-21T00:46:46;1.50;99.90
64715;DHT22;51144;53.002;6.506;2022-11-21T00:49:11;1.50;99.90
64715;DHT22;51144;53.002;6.506;2022-11-21T00:51:37;1.40;99.90
64715;DHT22;51144;53.002;6.506;2022-11-21T00:54:02;1.40;99.90
64715;DHT22;51144;53.002;6.506;2022-11-21T00:56:28;1.40;99.90
64715;DHT22;51144;53.002;6.506;2022-11-21T00:58:53;1.40;99.90
64715;DHT22;51144;53.002;6.506;2022-11-21T01:01:19;1.40;99.90
64715;DHT22;51144;53.002;6.506;2022-11-21T01:03:45;1.30;99.90
64715;DHT22;51144;53.002;6.506;2022-11-21T01:06:12;1.30;99.90
64715;DHT22;51144;53.002;6.506;2022-11-21T01:08:40;1.30;99.90
64715;DHT22;51144;53.002;6.506;2022-11-21T01:11:08;1.20;99.90
64715;DHT22;51144;53.002;6.506;2022-11-21T01:13:35;1.20;99.90
64715;DHT22;51144;53.002;6.506;2022-11-21T01:16:06;1.20;99.90
64715;DHT22;51144;53.002;6.506;2022-11-21T01:18:32;1.20;99.90
64715;DHT22;51144;53.002;6.506;2022-11-21T01:21:02;1.20;99.90
64715;DHT22;51144;53.002;6.506;2022-11-21T01:23:29;1.20;99.90
64715;DHT22;51144;53.002;6.506;2022-11-21T01:25:59;1.20;99.90
64715;DHT22;51144;53.002;6.506;2022-11-21T01:28:24;1.20;99.90
64715;DHT22;51144;53.002;6.506;2022-11-21T01:30:50;1.20;99.90
64715;DHT22;51144;53.002;6.506;2022-11-21T01:33:15;1.20;99.90
64715;DHT22;51144;53.002;6.506;2022-11-21T01:35:41;1.20;99.90
64715;DHT22;51144;53.002;6.506;2022-11-21T01:38:07;1.20;99.90
64715;DHT22;51144;53.002;6.506;2022-11-21T01:40:37;1.20;99.90
64715;DHT22;51144;53.002;6.506;2022-11-21T01:43:11;1.20;99.90
64715;DHT22;51144;53.002;6.506;2022-11-21T01:45:56;1.20;99.90
64715;DHT22;51144;53.002;6.506;2022-11-21T01:48:33;1.10;99.90
64715;DHT22;51144;53.002;6.506;2022-11-21T01:51:06;1.10;99.90
64715;DHT22;51144;53.002;6.506;2022-11-21T01:53:35;1.10;99.90
64715;DHT22;51144;53.002;6.506;2022-11-21T01:56:01;1.00;99.90
64715;DHT22;51144;53.002;6.506;2022-11-21T01:58:28;0.90;99.90
64715;DHT22;51144;53.002;6.506;2022-11-21T02:00:55;0.80;99.90
64715;DHT22;51144;53.002;6.506;2022-11-21T02:03:23;0.70;99.90
64715;DHT22;51144;53.002;6.506;2022-11-21T02:05:53;0.60;99.90
64715;DHT22;51144;53.002;6.506;2022-11-21T02:08:20;0.60;99.90
64715;DHT22;51144;53.002;6.506;2022-11-21T02:11:14;0.50;99.90
64715;DHT22;51144;53.002;6.506;2022-11-21T02:13:41;0.50;99.90
64715;DHT22;51144;53.002;6.506;2022-11-21T02:16:07;0.40;99.90
64715;DHT22;51144;53.002;6.506;2022-11-21T02:18:33;0.40;99.90
64715;DHT22;51144;53.002;6.506;2022-11-21T02:21:10;0.40;99.90
64715;DHT22;51144;53.002;6.506;2022-11-21T02:23:49;0.30;99.90
64715;DHT22;51144;53.002;6.506;2022-11-21T02:26:17;0.20;99.90
64715;DHT22;51144;53.002;6.506;2022-11-21T02:28:46;0.20;99.90
64715;DHT22;51144;53.002;6.506;2022-11-21T02:31:11;0.20;99.90
64715;DHT22;51144;53.002;6.506;2022-11-21T02:33:37;0.10;99.90
64715;DHT22;51144;53.002;6.506;2022-11-21T02:36:03;0.10;99.90
64715;DHT22;51144;53.002;6.506;2022-11-21T02:38:35;0.10;99.90
64715;DHT22;51144;53.002;6.506;2022-11-21T02:41:11;0.00;99.90
64715;DHT22;51144;53.002;6.506;2022-11-21T02:43:45;0.00;99.90
64715;DHT22;51144;53.002;6.506;2022-11-21T02:46:12;0.00;99.90
64715;DHT22;51144;53.002;6.506;2022-11-21T02:48:37;0.00;99.90
64715;DHT22;51144;53.002;6.506;2022-11-21T02:51:03;-0.10;99.90
64715;DHT22;51144;53.002;6.506;2022-11-21T02:53:29;-0.10;99.90
64715;DHT22;51144;53.002;6.506;2022-11-21T02:55:55;-0.10;99.90
64715;DHT22;51144;53.002;6.506;2022-11-21T02:58:20;-0.10;99.90
64715;DHT22;51144;53.002;6.506;2022-11-21T03:00:49;-0.10;99.90
64715;DHT22;51144;53.002;6.506;2022-11-21T03:03:14;-0.10;99.90
64715;DHT22;51144;53.002;6.506;2022-11-21T03:05:40;-0.10;99.90
64715;DHT22;51144;53.002;6.506;2022-11-21T03:08:06;-0.10;99.90
64715;DHT22;51144;53.002;6.506;2022-11-21T03:10:32;-0.10;99.90
64715;DHT22;51144;53.002;6.506;2022-11-21T03:12:58;-0.20;99.90
64715;DHT22;51144;53.002;6.506;2022-11-21T03:15:32;-0.20;99.90
64715;DHT22;51144;53.002;6.506;2022-11-21T03:17:58;-0.20;99.90
64715;DHT22;51144;53.002;6.506;2022-11-21T03:20:27;-0.20;99.90
64715;DHT22;51144;53.002;6.506;2022-11-21T03:22:53;-0.30;99.90
64715;DHT22;51144;53.002;6.506;2022-11-21T03:25:18;-0.30;99.90
64715;DHT22;51144;53.002;6.506;2022-11-21T03:27:44;-0.30;99.90
64715;DHT22;51144;53.002;6.506;2022-11-21T03:30:10;-0.30;99.90
64715;DHT22;51144;53.002;6.506;2022-11-21T03:32:36;-0.40;99.90
64715;DHT22;51144;53.002;6.506;2022-11-21T03:35:02;-0.40;99.90
64715;DHT22;51144;53.002;6.506;2022-11-21T03:37:27;-0.40;99.90
64715;DHT22;51144;53.002;6.506;2022-11-21T03:39:53;-0.40;99.90
64715;DHT22;51144;53.002;6.506;2022-11-21T03:42:18;-0.40;99.90
64715;DHT22;51144;53.002;6.506;2022-11-21T03:44:44;-0.50;99.90
64715;DHT22;51144;53.002;6.506;2022-11-21T03:47:09;-0.50;99.90
64715;DHT22;51144;53.002;6.506;2022-11-21T03:49:35;-0.50;99.90
64715;DHT22;51144;53.002;6.506;2022-11-21T03:52:00;-0.50;99.90
64715;DHT22;51144;53.002;6.506;2022-11-21T03:54:26;-0.50;99.90
64715;DHT22;51144;53.002;6.506;2022-11-21T03:56:52;-0.50;99.90
64715;DHT22;51144;53.002;6.506;2022-11-21T03:59:17;-0.50;99.90
64715;DHT22;51144;53.002;6.506;2022-11-21T04:01:43;-0.60;99.90
64715;DHT22;51144;53.002;6.506;2022-11-21T04:04:08;-0.60;99.90
64715;DHT22;51144;53.002;6.506;2022-11-21T04:06:34;-0.60;99.90
64715;DHT22;51144;53.002;6.506;2022-11-21T04:08:59;-0.70;99.90
64715;DHT22;51144;53.002;6.506;2022-11-21T04:11:25;-0.70;99.90
64715;DHT22;51144;53.002;6.506;2022-11-21T04:13:51;-0.70;99.90
64715;DHT22;51144;53.002;6.506;2022-11-21T04:16:16;-0.70;99.90
64715;DHT22;51144;53.002;6.506;2022-11-21T04:18:42;-0.70;99.90
64715;DHT22;51144;53.002;6.506;2022-11-21T04:21:09;-0.70;99.90
64715;DHT22;51144;53.002;6.506;2022-11-21T04:23:35;-0.70;99.90
64715;DHT22;51144;53.002;6.506;2022-11-21T04:26:01;-0.70;99.90
64715;DHT22;51144;53.002;6.506;2022-11-21T04:28:27;-0.70;99.90
64715;DHT22;51144;53.002;6.506;2022-11-21T04:30:52;-0.70;99.90
64715;DHT22;51144;53.002;6.506;2022-11-21T04:33:18;-0.70;99.90
64715;DHT22;51144;53.002;6.506;2022-11-21T04:35:45;-0.70;99.90
64715;DHT22;51144;53.002;6.506;2022-11-21T04:38:12;-0.70;99.90
64715;DHT22;51144;53.002;6.506;2022-11-21T04:40:38;-0.70;99.90
64715;DHT22;51144;53.002;6.506;2022-11-21T04:43:04;-0.70;99.90
64715;DHT22;51144;53.002;6.506;2022-11-21T04:45:30;-0.70;99.90
64715;DHT22;51144;53.002;6.506;2022-11-21T04:47:56;-0.80;99.90
64715;DHT22;51144;53.002;6.506;2022-11-21T04:50:22;-0.80;99.90
64715;DHT22;51144;53.002;6.506;2022-11-21T04:52:52;-0.80;99.90
64715;DHT22;51144;53.002;6.506;2022-11-21T04:55:19;-0.80;99.90
64715;DHT22;51144;53.002;6.506;2022-11-21T04:57:45;-0.80;99.90
64715;DHT22;51144;53.002;6.506;2022-11-21T05:00:12;-0.80;99.90
64715;DHT22;51144;53.002;6.506;2022-11-21T05:02:38;-0.80;99.90
64715;DHT22;51144;53.002;6.506;2022-11-21T05:05:04;-0.80;99.90
64715;DHT22;51144;53.002;6.506;2022-11-21T05:07:29;-0.80;99.90
64715;DHT22;51144;53.002;6.506;2022-11-21T05:09:55;-0.70;99.90
64715;DHT22;51144;53.002;6.506;2022-11-21T05:12:20;-0.80;99.90
64715;DHT22;51144;53.002;6.506;2022-11-21T05:15:04;-0.80;99.90
64715;DHT22;51144;53.002;6.506;2022-11-21T05:17:30;-0.80;99.90
64715;DHT22;51144;53.002;6.506;2022-11-21T05:19:56;-0.80;99.90
64715;DHT22;51144;53.002;6.506;2022-11-21T05:22:21;-0.80;99.90
64715;DHT22;51144;53.002;6.506;2022-11-21T05:24:47;-0.80;99.90
64715;DHT22;51144;53.002;6.506;2022-11-21T05:27:13;-0.80;99.90
64715;DHT22;51144;53.002;6.506;2022-11-21T05:29:38;-0.80;99.90
64715;DHT22;51144;53.002;6.506;2022-11-21T05:32:04;-0.70;99.90
64715;DHT22;51144;53.002;6.506;2022-11-21T05:34:29;-0.70;99.90
64715;DHT22;51144;53.002;6.506;2022-11-21T05:36:55;-0.70;99.90
64715;DHT22;51144;53.002;6.506;2022-11-21T05:39:21;-0.70;99.90
64715;DHT22;51144;53.002;6.506;2022-11-21T05:41:47;-0.70;99.90
64715;DHT22;51144;53.002;6.506;2022-11-21T05:44:13;-0.70;99.90
64715;DHT22;51144;53.002;6.506;2022-11-21T05:46:38;-0.70;99.90
64715;DHT22;51144;53.002;6.506;2022-11-21T05:49:04;-0.60;99.90
64715;DHT22;51144;53.002;6.506;2022-11-21T05:51:29;-0.60;99.90
64715;DHT22;51144;53.002;6.506;2022-11-21T05:53:55;-0.60;99.90
64715;DHT22;51144;53.002;6.506;2022-11-21T05:56:21;-0.60;99.90
64715;DHT22;51144;53.002;6.506;2022-11-21T05:58:46;-0.60;99.90
64715;DHT22;51144;53.002;6.506;2022-11-21T06:01:13;-0.60;99.90
64715;DHT22;51144;53.002;6.506;2022-11-21T06:04:01;-0.60;99.90
64715;DHT22;51144;53.002;6.506;2022-11-21T06:06:27;-0.60;99.90
64715;DHT22;51144;53.002;6.506;2022-11-21T06:08:52;-0.60;99.90
64715;DHT22;51144;53.002;6.506;2022-11-21T06:11:18;-0.60;99.90
64715;DHT22;51144;53.002;6.506;2022-11-21T06:13:44;-0.60;99.90
64715;DHT22;51144;53.002;6.506;2022-11-21T06:16:12;-0.60;99.90
64715;DHT22;51144;53.002;6.506;2022-11-21T06:18:40;-0.60;99.90
64715;DHT22;51144;53.002;6.506;2022-11-21T06:21:08;-0.60;99.90
64715;DHT22;51144;53.002;6.506;2022-11-21T06:23:36;-0.60;99.90
64715;DHT22;51144;53.002;6.506;2022-11-21T06:26:05;-0.60;99.90
64715;DHT22;51144;53.002;6.506;2022-11-21T06:28:36;-0.60;99.90
64715;DHT22;51144;53.002;6.506;2022-11-21T06:31:07;-0.60;99.90
64715;DHT22;51144;53.002;6.506;2022-11-21T06:33:33;-0.60;99.90
64715;DHT22;51144;53.002;6.506;2022-11-21T06:36:06;-0.70;99.90
64715;DHT22;51144;53.002;6.506;2022-11-21T06:38:33;-0.70;99.90
64715;DHT22;51144;53.002;6.506;2022-11-21T06:41:03;-0.70;99.90
64715;DHT22;51144;53.002;6.506;2022-11-21T06:43:29;-0.80;99.90
64715;DHT22;51144;53.002;6.506;2022-11-21T06:45:55;-0.80;99.90
64715;DHT22;51144;53.002;6.506;2022-11-21T06:48:21;-0.90;99.90
64715;DHT22;51144;53.002;6.506;2022-11-21T06:50:47;-0.80;99.90
64715;DHT22;51144;53.002;6.506;2022-11-21T06:53:16;-0.80;99.90
64715;DHT22;51144;53.002;6.506;2022-11-21T06:55:42;-0.80;99.90
64715;DHT22;51144;53.002;6.506;2022-11-21T06:58:07;-0.80;99.90
64715;DHT22;51144;53.002;6.506;2022-11-21T07:00:37;-0.80;99.90
64715;DHT22;51144;53.002;6.506;2022-11-21T07:03:11;-0.90;99.90
64715;DHT22;51144;53.002;6.506;2022-11-21T07:05:37;-0.90;99.90
64715;DHT22;51144;53.002;6.506;2022-11-21T07:08:03;-0.80;99.90
64715;DHT22;51144;53.002;6.506;2022-11-21T07:10:29;-0.80;99.90
64715;DHT22;51144;53.002;6.506;2022-11-21T07:13:01;-0.80;99.90
64715;DHT22;51144;53.002;6.506;2022-11-21T07:15:52;-0.80;99.90
64715;DHT22;51144;53.002;6.506;2022-11-21T07:18:54;-0.80;99.90
64715;DHT22;51144;53.002;6.506;2022-11-21T07:21:11;-0.80;99.90
64715;DHT22;51144;53.002;6.506;2022-11-21T07:24:02;-0.80;99.90
64715;DHT22;51144;53.002;6.506;2022-11-21T07:26:28;-0.80;99.90
64715;DHT22;51144;53.002;6.506;2022-11-21T07:28:53;-0.80;99.90
64715;DHT22;51144;53.002;6.506;2022-11-21T07:31:21;-0.80;99.90
64715;DHT22;51144;53.002;6.506;2022-11-21T07:33:47;-0.80;99.90
64715;DHT22;51144;53.002;6.506;2022-11-21T07:36:12;-0.80;99.90
64715;DHT22;51144;53.002;6.506;2022-11-21T07:38:38;-0.80;99.90
64715;DHT22;51144;53.002;6.506;2022-11-21T07:41:05;-0.80;99.90
64715;DHT22;51144;53.002;6.506;2022-11-21T07:43:33;-0.80;99.90
64715;DHT22;51144;53.002;6.506;2022-11-21T07:45:59;-0.80;99.90
64715;DHT22;51144;53.002;6.506;2022-11-21T07:48:24;-0.80;99.90
64715;DHT22;51144;53.002;6.506;2022-11-21T07:50:50;-0.80;99.90
64715;DHT22;51144;53.002;6.506;2022-11-21T07:53:18;-0.80;99.90
64715;DHT22;51144;53.002;6.506;2022-11-21T07:55:44;-0.70;99.90
64715;DHT22;51144;53.002;6.506;2022-11-21T07:58:12;-0.70;99.90
64715;DHT22;51144;53.002;6.506;2022-11-21T08:00:39;-0.60;99.90
64715;DHT22;51144;53.002;6.506;2022-11-21T08:03:13;-0.60;99.90
64715;DHT22;51144;53.002;6.506;2022-11-21T08:05:40;-0.60;99.90
64715;DHT22;51144;53.002;6.506;2022-11-21T08:08:14;-0.50;99.90
64715;DHT22;51144;53.002;6.506;2022-11-21T08:10:44;-0.50;99.90
64715;DHT22;51144;53.002;6.506;2022-11-21T08:13:11;-0.40;99.90
64715;DHT22;51144;53.002;6.506;2022-11-21T08:15:37;-0.40;99.90
64715;DHT22;51144;53.002;6.506;2022-11-21T08:18:16;-0.40;99.90
64715;DHT22;51144;53.002;6.506;2022-11-21T08:20:45;-0.40;99.90
64715;DHT22;51144;53.002;6.506;2022-11-21T08:23:11;-0.40;99.90
64715;DHT22;51144;53.002;6.506;2022-11-21T08:25:38;-0.40;99.90
64715;DHT22;51144;53.002;6.506;2022-11-21T08:28:05;-0.30;99.90
64715;DHT22;51144;53.002;6.506;2022-11-21T08:30:34;-0.30;99.90
64715;DHT22;51144;53.002;6.506;2022-11-21T08:33:03;-0.30;99.90
64715;DHT22;51144;53.002;6.506;2022-11-21T08:35:29;-0.20;99.90
64715;DHT22;51144;53.002;6.506;2022-11-21T08:37:56;-0.10;99.90
64715;DHT22;51144;53.002;6.506;2022-11-21T08:40:23;0.00;99.90
64715;DHT22;51144;53.002;6.506;2022-11-21T08:43:03;0.10;99.90
64715;DHT22;51144;53.002;6.506;2022-11-21T08:45:30;0.30;99.90
64715;DHT22;51144;53.002;6.506;2022-11-21T08:47:56;0.50;99.90
64715;DHT22;51144;53.002;6.506;2022-11-21T08:50:22;0.60;99.90
64715;DHT22;51144;53.002;6.506;2022-11-21T08:52:48;0.70;99.90
64715;DHT22;51144;53.002;6.506;2022-11-21T08:55:27;0.70;99.90
64715;DHT22;51144;53.002;6.506;2022-11-21T08:57:52;0.70;99.90
64715;DHT22;51144;53.002;6.506;2022-11-21T09:00:18;0.70;99.90
64715;DHT22;51144;53.002;6.506;2022-11-21T09:02:44;0.70;99.90
64715;DHT22;51144;53.002;6.506;2022-11-21T09:05:09;0.70;99.90
64715;DHT22;51144;53.002;6.506;2022-11-21T09:07:41;0.60;99.90
64715;DHT22;51144;53.002;6.506;2022-11-21T09:10:07;0.60;99.90
64715;DHT22;51144;53.002;6.506;2022-11-21T09:12:36;0.60;99.90
64715;DHT22;51144;53.002;6.506;2022-11-21T09:15:02;0.70;99.90
64715;DHT22;51144;53.002;6.506;2022-11-21T09:17:46;0.60;99.90
64715;DHT22;51144;53.002;6.506;2022-11-21T09:20:32;0.60;99.90
64715;DHT22;51144;53.002;6.506;2022-11-21T09:23:10;0.70;99.90
64715;DHT22;51144;53.002;6.506;2022-11-21T09:25:36;0.70;99.90
64715;DHT22;51144;53.002;6.506;2022-11-21T09:28:02;0.70;99.90
64715;DHT22;51144;53.002;6.506;2022-11-21T09:30:28;0.70;99.90
64715;DHT22;51144;53.002;6.506;2022-11-21T09:33:01;0.70;99.90
64715;DHT22;51144;53.002;6.506;2022-11-21T09:35:28;0.70;99.90
64715;DHT22;51144;53.002;6.506;2022-11-21T09:37:53;0.70;99.90
64715;DHT22;51144;53.002;6.506;2022-11-21T09:40:19;0.70;99.90
64715;DHT22;51144;53.002;6.506;2022-11-21T09:42:57;0.70;99.90
64715;DHT22;51144;53.002;6.506;2022-11-21T09:48:11;0.80;99.90
64715;DHT22;51144;53.002;6.506;2022-11-21T09:50:41;0.80;99.90
64715;DHT22;51144;53.002;6.506;2022-11-21T09:54:10;0.80;99.90
64715;DHT22;51144;53.002;6.506;2022-11-21T09:56:17;0.80;99.90
64715;DHT22;51144;53.002;6.506;2022-11-21T09:59:02;0.80;99.90
64715;DHT22;51144;53.002;6.506;2022-11-21T10:01:31;0.80;99.90
64715;DHT22;51144;53.002;6.506;2022-11-21T10:03:57;0.90;99.90
64715;DHT22;51144;53.002;6.506;2022-11-21T10:06:28;0.90;99.90
64715;DHT22;51144;53.002;6.506;2022-11-21T10:14:49;1.00;99.90
64715;DHT22;51144;53.002;6.506;2022-11-21T10:17:21;1.00;99.90
64715;DHT22;51144;53.002;6.506;2022-11-21T10:22:45;1.10;99.90
64715;DHT22;51144;53.002;6.506;2022-11-21T10:25:23;1.10;99.90
64715;DHT22;51144;53.002;6.506;2022-11-21T10:30:41;1.20;99.90
64715;DHT22;51144;53.002;6.506;2022-11-21T10:33:14;1.30;99.90
64715;DHT22;51144;53.002;6.506;2022-11-21T10:35:50;1.30;99.90
64715;DHT22;51144;53.002;6.506;2022-11-21T10:41:01;1.40;99.90
64715;DHT22;51144;53.002;6.506;2022-11-21T10:43:41;1.50;99.90
64715;DHT22;51144;53.002;6.506;2022-11-21T10:46:26;1.60;99.90
64715;DHT22;51144;53.002;6.506;2022-11-21T10:48:58;1.70;99.90
64715;DHT22;51144;53.002;6.506;2022-11-21T10:52:05;1.80;99.90
64715;DHT22;51144;53.002;6.506;2022-11-21T10:54:31;2.00;99.90
64715;DHT22;51144;53.002;6.506;2022-11-21T10:57:12;2.40;99.90
64715;DHT22;51144;53.002;6.506;2022-11-21T10:59:38;2.70;99.90
64715;DHT22;51144;53.002;6.506;2022-11-21T11:04:39;2.80;99.90
64715;DHT22;51144;53.002;6.506;2022-11-21T11:07:24;2.80;99.90
64715;DHT22;51144;53.002;6.506;2022-11-21T11:09:51;2.80;99.90
64715;DHT22;51144;53.002;6.506;2022-11-21T11:14:57;2.60;99.90
64715;DHT22;51144;53.002;6.506;2022-11-21T11:17:31;2.60;99.90
64715;DHT22;51144;53.002;6.506;2022-11-21T11:20:06;2.60;99.90
64715;DHT22;51144;53.002;6.506;2022-11-21T11:22:32;2.60;99.90
64715;DHT22;51144;53.002;6.506;2022-11-21T11:24:57;2.60;99.90
64715;DHT22;51144;53.002;6.506;2022-11-21T11:27:29;2.70;99.90
64715;DHT22;51144;53.002;6.506;2022-11-21T11:29:55;2.70;99.90
64715;DHT22;51144;53.002;6.506;2022-11-21T11:32:20;2.80;99.90
64715;DHT22;51144;53.002;6.506;2022-11-21T11:34:56;2.80;99.90
64715;DHT22;51144;53.002;6.506;2022-11-21T11:37:41;2.80;99.90
64715;DHT22;51144;53.002;6.506;2022-11-21T11:40:30;3.00;99.90
64715;DHT22;51144;53.002;6.506;2022-11-21T11:43:11;3.00;99.90
64715;DHT22;51144;53.002;6.506;2022-11-21T11:46:26;3.00;99.90
64715;DHT22;51144;53.002;6.506;2022-11-21T11:51:57;3.00;99.90
64715;DHT22;51144;53.002;6.506;2022-11-21T11:54:32;3.00;99.90
64715;DHT22;51144;53.002;6.506;2022-11-21T11:56:59;3.00;99.90
64715;DHT22;51144;53.002;6.506;2022-11-21T11:59:30;3.00;99.90
64715;DHT22;51144;53.002;6.506;2022-11-21T12:02:00;3.00;99.90
64715;DHT22;51144;53.002;6.506;2022-11-21T12:04:30;3.00;99.90
64715;DHT22;51144;53.002;6.506;2022-11-21T12:07:05;2.90;99.90
64715;DHT22;51144;53.002;6.506;2022-11-21T12:12:31;2.90;99.90
64715;DHT22;51144;53.002;6.506;2022-11-21T12:15:13;2.90;99.90
64715;DHT22;51144;53.002;6.506;2022-11-21T12:21:13;2.90;99.90
64715;DHT22;51144;53.002;6.506;2022-11-21T12:23:56;2.90;99.90
64715;DHT22;51144;53.002;6.506;2022-11-21T12:32:27;2.90;99.90
64715;DHT22;51144;53.002;6.506;2022-11-21T12:44:23;3.00;99.90
64715;DHT22;51144;53.002;6.506;2022-11-21T12:52:40;3.10;99.90
64715;DHT22;51144;53.002;6.506;2022-11-21T12:55:33;3.20;99.90
64715;DHT22;51144;53.002;6.506;2022-11-21T12:58:17;3.20;99.90
64715;DHT22;51144;53.002;6.506;2022-11-21T13:03:56;3.30;99.90
64715;DHT22;51144;53.002;6.506;2022-11-21T13:06:30;3.30;99.90
64715;DHT22;51144;53.002;6.506;2022-11-21T13:08:59;3.40;99.90
64715;DHT22;51144;53.002;6.506;2022-11-21T13:14:39;3.50;99.90
64715;DHT22;51144;53.002;6.506;2022-11-21T13:20:15;3.60;99.90
64715;DHT22;51144;53.002;6.506;2022-11-21T13:30:51;3.60;99.90
64715;DHT22;51144;53.002;6.506;2022-11-21T13:36:11;3.60;99.90
64715;DHT22;51144;53.002;6.506;2022-11-21T13:44:35;3.70;99.90
64715;DHT22;51144;53.002;6.506;2022-11-21T13:47:09;3.70;99.90
64715;DHT22;51144;53.002;6.506;2022-11-21T13:52:33;3.80;99.90
64715;DHT22;51144;53.002;6.506;2022-11-21T14:04:16;3.70;99.90
64715;DHT22;51144;53.002;6.506;2022-11-21T14:06:48;3.70;99.90
64715;DHT22;51144;53.002;6.506;2022-11-21T14:09:29;3.70;99.90
64715;DHT22;51144;53.002;6.506;2022-11-21T14:12:28;3.70;99.90
64715;DHT22;51144;53.002;6.506;2022-11-21T14:17:47;3.70;99.90
64715;DHT22;51144;53.002;6.506;2022-11-21T14:20:20;3.80;99.90
64715;DHT22;51144;53.002;6.506;2022-11-21T14:23:14;3.80;99.90
64715;DHT22;51144;53.002;6.506;2022-11-21T14:25:58;3.90;99.90
64715;DHT22;51144;53.002;6.506;2022-11-21T14:28:31;3.90;99.90
64715;DHT22;51144;53.002;6.506;2022-11-21T14:31:08;3.90;99.90
64715;DHT22;51144;53.002;6.506;2022-11-21T14:33:42;3.90;99.90
64715;DHT22;51144;53.002;6.506;2022-11-21T14:36:13;3.90;99.90
64715;DHT22;51144;53.002;6.506;2022-11-21T14:38:57;3.90;99.90
64715;DHT22;51144;53.002;6.506;2022-11-21T14:41:24;3.90;99.90
64715;DHT22;51144;53.002;6.506;2022-11-21T14:46:24;3.90;99.90
64715;DHT22;51144;53.002;6.506;2022-11-21T14:48:53;3.90;99.90
64715;DHT22;51144;53.002;6.506;2022-11-21T14:51:21;4.00;99.90
64715;DHT22;51144;53.002;6.506;2022-11-21T14:53:49;4.00;99.90
64715;DHT22;51144;53.002;6.506;2022-11-21T14:56:32;3.90;99.90
64715;DHT22;51144;53.002;6.506;2022-11-21T14:59:01;3.90;99.90
64715;DHT22;51144;53.002;6.506;2022-11-21T15:01:33;4.00;99.90
64715;DHT22;51144;53.002;6.506;2022-11-21T15:04:06;3.90;99.90
64715;DHT22;51144;53.002;6.506;2022-11-21T15:06:43;3.90;99.90
64715;DHT22;51144;53.002;6.506;2022-11-21T15:09:12;3.90;99.90
64715;DHT22;51144;53.002;6.506;2022-11-21T15:12:00;3.90;99.90
64715;DHT22;51144;53.002;6.506;2022-11-21T15:14:41;3.90;99.90
64715;DHT22;51144;53.002;6.506;2022-11-21T15:17:12;3.90;99.90
64715;DHT22;51144;53.002;6.506;2022-11-21T15:19:41;3.90;99.90
64715;DHT22;51144;53.002;6.506;2022-11-21T15:22:31;3.90;99.90
64715;DHT22;51144;53.002;6.506;2022-11-21T15:27:34;3.90;99.90
64715;DHT22;51144;53.002;6.506;2022-11-21T15:32:31;3.90;99.90
64715;DHT22;51144;53.002;6.506;2022-11-21T15:34:57;3.90;99.90
64715;DHT22;51144;53.002;6.506;2022-11-21T15:37:23;3.90;99.90
64715;DHT22;51144;53.002;6.506;2022-11-21T15:39:50;3.90;99.90
64715;DHT22;51144;53.002;6.506;2022-11-21T15:47:22;3.90;99.90
64715;DHT22;51144;53.002;6.506;2022-11-21T15:49:48;3.90;99.90
64715;DHT22;51144;53.002;6.506;2022-11-21T15:52:13;3.90;99.90
64715;DHT22;51144;53.002;6.506;2022-11-21T15:54:39;3.90;99.90
64715;DHT22;51144;53.002;6.506;2022-11-21T15:57:05;3.90;99.90
64715;DHT22;51144;53.002;6.506;2022-11-21T15:59:30;3.90;99.90
64715;DHT22;51144;53.002;6.506;2022-11-21T16:01:56;3.90;99.90
64715;DHT22;51144;53.002;6.506;2022-11-21T16:04:21;3.90;99.90
64715;DHT22;51144;53.002;6.506;2022-11-21T16:06:47;3.90;99.90
64715;DHT22;51144;53.002;6.506;2022-11-21T16:09:12;3.90;99.90
64715;DHT22;51144;53.002;6.506;2022-11-21T16:11:38;3.90;99.90
64715;DHT22;51144;53.002;6.506;2022-11-21T16:14:08;3.90;99.90
64715;DHT22;51144;53.002;6.506;2022-11-21T16:16:38;3.90;99.90
64715;DHT22;51144;53.002;6.506;2022-11-21T16:19:11;3.90;99.90
64715;DHT22;51144;53.002;6.506;2022-11-21T16:21:37;3.90;99.90
64715;DHT22;51144;53.002;6.506;2022-11-21T16:24:03;4.00;99.90
64715;DHT22;51144;53.002;6.506;2022-11-21T16:26:28;4.00;99.90
64715;DHT22;51144;53.002;6.506;2022-11-21T16:28:55;4.00;99.90
64715;DHT22;51144;53.002;6.506;2022-11-21T16:31:23;4.00;99.90
64715;DHT22;51144;53.002;6.506;2022-11-21T16:33:49;4.00;99.90
64715;DHT22;51144;53.002;6.506;2022-11-21T16:36:23;4.00;99.90
64715;DHT22;51144;53.002;6.506;2022-11-21T16:38:49;4.00;99.90
64715;DHT22;51144;53.002;6.506;2022-11-21T16:41:16;4.00;99.90
64715;DHT22;51144;53.002;6.506;2022-11-21T16:43:49;4.10;99.90
64715;DHT22;51144;53.002;6.506;2022-11-21T16:46:15;4.10;99.90
64715;DHT22;51144;53.002;6.506;2022-11-21T16:48:41;4.10;99.90
64715;DHT22;51144;53.002;6.506;2022-11-21T16:51:13;4.10;99.90
64715;DHT22;51144;53.002;6.506;2022-11-21T16:53:40;4.10;99.90
64715;DHT22;51144;53.002;6.506;2022-11-21T16:56:06;4.10;99.90
64715;DHT22;51144;53.002;6.506;2022-11-21T16:58:32;4.10;99.90
64715;DHT22;51144;53.002;6.506;2022-11-21T17:01:09;4.10;99.90
64715;DHT22;51144;53.002;6.506;2022-11-21T17:03:36;4.10;99.90
64715;DHT22;51144;53.002;6.506;2022-11-21T17:06:02;4.10;99.90
64715;DHT22;51144;53.002;6.506;2022-11-21T17:08:28;4.10;99.90
64715;DHT22;51144;53.002;6.506;2022-11-21T17:10:54;4.00;99.90
64715;DHT22;51144;53.002;6.506;2022-11-21T17:13:20;4.00;99.90
64715;DHT22;51144;53.002;6.506;2022-11-21T17:15:45;4.00;99.90
64715;DHT22;51144;53.002;6.506;2022-11-21T17:18:11;3.90;99.90
64715;DHT22;51144;53.002;6.506;2022-11-21T17:20:37;3.90;99.90
64715;DHT22;51144;53.002;6.506;2022-11-21T17:23:02;3.90;99.90
64715;DHT22;51144;53.002;6.506;2022-11-21T17:25:28;3.80;99.90
64715;DHT22;51144;53.002;6.506;2022-11-21T17:27:54;3.80;99.90
64715;DHT22;51144;53.002;6.506;2022-11-21T17:30:20;3.80;99.90
64715;DHT22;51144;53.002;6.506;2022-11-21T17:32:46;3.80;99.90
64715;DHT22;51144;53.002;6.506;2022-11-21T17:35:12;3.70;99.90
64715;DHT22;51144;53.002;6.506;2022-11-21T17:37:38;3.70;99.90
64715;DHT22;51144;53.002;6.506;2022-11-21T17:40:04;3.70;99.90